sensor_id;sensor_type;location;lat;lon;timestamp;pressure;altitude;pressure_sealevel;temperature;humidity
20077;BME280;12348;42.710;23.378;2023-03-01T00:00:54;95656.03;;;5.61;100.00
20077;BME280;12348;42.710;23.378;2023-03-01T00:03:21;95640.81;;;5.61;100.00
20077;BME280;12348;42.710;23.378;2023-03-01T00:05:48;95646.06;;;5.56;100.00
20077;BME280;12348;42.710;23.378;2023-03-01T00:08:14;95634.34;;;5.57;100.00
20077;BME280;12348;42.710;23.378;2023-03-01T00:10:41;95642.50;;;5.50;100.00
20077;BME280;12348;42.710;23.378;2023-03-01T00:13:09;95652.63;;;5.48;100.00
20077;BME280;12348;42.710;23.378;2023-03-01T00:15:38;95645.72;;;5.52;100.00
20077;BME280;12348;42.710;23.378;2023-03-01T00:18:05;95641.94;;;5.48;100.00
20077;BME280;12348;42.710;23.378;2023-03-01T00:20:32;95634.72;;;5.49;100.00
20077;BME280;12348;42.710;23.378;2023-03-01T00:22:59;95631.34;;;5.53;100.00
20077;BME280;12348;42.710;23.378;2023-03-01T00:25:26;95624.56;;;5.46;100.00
20077;BME280;12348;42.710;23.378;2023-03-01T00:27:52;95632.00;;;5.44;100.00
20077;BME280;12348;42.710;23.378;2023-03-01T00:30:21;95626.59;;;5.39;100.00
20077;BME280;12348;42.710;23.378;2023-03-01T00:32:47;95625.94;;;5.31;100.00
20077;BME280;12348;42.710;23.378;2023-03-01T00:35:14;95631.03;;;5.33;100.00
20077;BME280;12348;42.710;23.378;2023-03-01T00:37:41;95623.13;;;5.38;100.00
20077;BME280;12348;42.710;23.378;2023-03-01T00:40:08;95609.13;;;5.31;100.00
20077;BME280;12348;42.710;23.378;2023-03-01T00:42:35;95616.72;;;5.22;100.00
20077;BME280;12348;42.710;23.378;2023-03-01T00:45:04;95603.94;;;5.24;100.00
20077;BME280;12348;42.710;23.378;2023-03-01T00:47:34;95611.31;;;5.17;100.00
20077;BME280;12348;42.710;23.378;2023-03-01T00:50:01;95592.47;;;5.07;100.00
20077;BME280;12348;42.710;23.378;2023-03-01T00:52:27;95609.91;;;5.15;100.00
20077;BME280;12348;42.710;23.378;2023-03-01T00:54:54;95614.56;;;5.19;100.00
20077;BME280;12348;42.710;23.378;2023-03-01T00:57:21;95610.72;;;5.15;100.00
20077;BME280;12348;42.710;23.378;2023-03-01T00:59:48;95604.09;;;5.18;100.00
20077;BME280;12348;42.710;23.378;2023-03-01T01:02:14;95601.38;;;5.13;100.00
20077;BME280;12348;42.710;23.378;2023-03-01T01:04:43;95613.31;;;5.10;100.00
20077;BME280;12348;42.710;23.378;2023-03-01T01:07:09;95601.53;;;5.06;100.00
20077;BME280;12348;42.710;23.378;2023-03-01T01:09:36;95592.31;;;4.97;100.00
20077;BME280;12348;42.710;23.378;2023-03-01T01:12:04;95614.72;;;5.13;100.00
20077;BME280;12348;42.710;23.378;2023-03-01T01:14:30;95605.91;;;5.12;100.00
20077;BME280;12348;42.710;23.378;2023-03-01T01:16:57;95612.78;;;5.08;100.00
20077;BME280;12348;42.710;23.378;2023-03-01T01:19:24;95596.81;;;5.13;100.00
20077;BME280;12348;42.710;23.378;2023-03-01T01:21:53;95601.09;;;5.14;100.00
20077;BME280;12348;42.710;23.378;2023-03-01T01:24:20;95603.44;;;5.10;100.00
20077;BME280;12348;42.710;23.378;2023-03-01T01:26:47;95609.28;;;5.07;100.00
20077;BME280;12348;42.710;23.378;2023-03-01T01:29:13;95592.13;;;5.03;100.00
20077;BME280;12348;42.710;23.378;2023-03-01T01:31:41;95615.19;;;5.09;100.00
20077;BME280;12348;42.710;23.378;2023-03-01T01:34:13;95614.53;;;5.02;100.00
20077;BME280;12348;42.710;23.378;2023-03-01T01:36:41;95601.69;;;5.16;100.00
20077;BME280;12348;42.710;23.378;2023-03-01T01:39:09;95610.03;;;5.20;100.00
20077;BME280;12348;42.710;23.378;2023-03-01T01:41:39;95616.22;;;5.25;100.00
20077;BME280;12348;42.710;23.378;2023-03-01T01:44:14;95616.22;;;5.25;100.00
20077;BME280;12348;42.710;23.378;2023-03-01T01:46:42;95620.22;;;5.23;100.00
20077;BME280;12348;42.710;23.378;2023-03-01T01:49:16;95621.56;;;5.25;100.00
20077;BME280;12348;42.710;23.378;2023-03-01T01:51:45;95617.03;;;5.26;100.00
20077;BME280;12348;42.710;23.378;2023-03-01T01:54:19;95617.13;;;5.31;100.00
20077;BME280;12348;42.710;23.378;2023-03-01T01:56:52;95610.56;;;5.39;100.00
20077;BME280;12348;42.710;23.378;2023-03-01T01:59:23;95605.97;;;5.34;100.00
20077;BME280;12348;42.710;23.378;2023-03-01T02:01:51;95604.25;;;5.28;100.00
20077;BME280;12348;42.710;23.378;2023-03-01T02:04:18;95599.66;;;5.23;100.00
20077;BME280;12348;42.710;23.378;2023-03-01T02:06:48;95599.56;;;5.18;100.00
20077;BME280;12348;42.710;23.378;2023-03-01T02:09:20;95602.91;;;5.08;100.00
20077;BME280;12348;42.710;23.378;2023-03-01T02:11:49;95596.56;;;5.15;100.00
20077;BME280;12348;42.710;23.378;2023-03-01T02:14:17;95588.88;;;5.18;100.00
20077;BME280;12348;42.710;23.378;2023-03-01T02:16:44;95600.47;;;5.24;100.00
20077;BME280;12348;42.710;23.378;2023-03-01T02:19:17;95594.56;;;5.22;100.00
20077;BME280;12348;42.710;23.378;2023-03-01T02:21:53;95588.09;;;5.18;100.00
20077;BME280;12348;42.710;23.378;2023-03-01T02:24:29;95593.91;;;5.15;100.00
20077;BME280;12348;42.710;23.378;2023-03-01T02:27:01;95596.50;;;5.09;100.00
20077;BME280;12348;42.710;23.378;2023-03-01T02:29:29;95595.22;;;5.12;100.00
20077;BME280;12348;42.710;23.378;2023-03-01T02:31:58;95598.59;;;5.07;100.00
20077;BME280;12348;42.710;23.378;2023-03-01T02:34:26;95591.31;;;5.03;100.00
20077;BME280;12348;42.710;23.378;2023-03-01T02:36:56;95589.25;;;5.05;100.00
20077;BME280;12348;42.710;23.378;2023-03-01T02:39:25;95603.59;;;5.04;100.00
20077;BME280;12348;42.710;23.378;2023-03-01T02:41:54;95602.31;;;5.06;100.00
20077;BME280;12348;42.710;23.378;2023-03-01T02:44:23;95610.09;;;5.08;100.00
20077;BME280;12348;42.710;23.378;2023-03-01T02:46:54;95600.72;;;5.05;100.00
20077;BME280;12348;42.710;23.378;2023-03-01T02:49:24;95593.25;;;5.07;100.00
20077;BME280;12348;42.710;23.378;2023-03-01T02:52:09;95600.06;;;4.98;100.00
20077;BME280;12348;42.710;23.378;2023-03-01T02:54:42;95589.66;;;4.97;100.00
20077;BME280;12348;42.710;23.378;2023-03-01T02:57:12;95585.19;;;5.02;100.00
20077;BME280;12348;42.710;23.378;2023-03-01T02:59:39;95586.97;;;4.97;100.00
20077;BME280;12348;42.710;23.378;2023-03-01T03:02:19;95585.84;;;5.09;100.00
20077;BME280;12348;42.710;23.378;2023-03-01T03:05:02;95593.25;;;5.07;100.00
20077;BME280;12348;42.710;23.378;2023-03-01T03:07:32;95609.84;;;5.09;100.00
20077;BME280;12348;42.710;23.378;2023-03-01T03:10:00;95598.13;;;5.10;100.00
20077;BME280;12348;42.710;23.378;2023-03-01T03:12:27;95591.16;;;5.09;100.00
20077;BME280;12348;42.710;23.378;2023-03-01T03:14:53;95588.75;;;5.08;100.00
20077;BME280;12348;42.710;23.378;2023-03-01T03:17:22;95593.03;;;5.09;100.00
20077;BME280;12348;42.710;23.378;2023-03-01T03:19:48;95601.19;;;5.02;100.00
20077;BME280;12348;42.710;23.378;2023-03-01T03:22:15;95600.38;;;4.85;100.00
20077;BME280;12348;42.710;23.378;2023-03-01T03:24:42;95606.34;;;4.92;100.00
20077;BME280;12348;42.710;23.378;2023-03-01T03:27:09;95607.66;;;4.90;100.00
20077;BME280;12348;42.710;23.378;2023-03-01T03:29:36;95599.75;;;4.95;100.00
20077;BME280;12348;42.710;23.378;2023-03-01T03:32:02;95598.53;;;5.02;100.00
20077;BME280;12348;42.710;23.378;2023-03-01T03:34:31;95607.50;;;4.96;100.00
20077;BME280;12348;42.710;23.378;2023-03-01T03:36:57;95604.94;;;5.01;100.00
20077;BME280;12348;42.710;23.378;2023-03-01T03:39:25;95603.28;;;5.00;100.00
20077;BME280;12348;42.710;23.378;2023-03-01T03:41:52;95599.59;;;5.01;100.00
20077;BME280;12348;42.710;23.378;2023-03-01T03:44:20;95607.28;;;4.98;100.00
20077;BME280;12348;42.710;23.378;2023-03-01T03:46:47;95608.31;;;4.97;100.00
20077;BME280;12348;42.710;23.378;2023-03-01T03:49:14;95612.81;;;4.96;100.00
20077;BME280;12348;42.710;23.378;2023-03-01T03:51:45;95615.44;;;4.91;100.00
20077;BME280;12348;42.710;23.378;2023-03-01T03:54:11;95614.84;;;4.89;100.00
20077;BME280;12348;42.710;23.378;2023-03-01T03:56:38;95611.03;;;4.85;100.00
20077;BME280;12348;42.710;23.378;2023-03-01T03:59:05;95618.16;;;4.79;100.00
20077;BME280;12348;42.710;23.378;2023-03-01T04:01:32;95610.72;;;4.81;100.00
20077;BME280;12348;42.710;23.378;2023-03-01T04:03:59;95620.09;;;4.84;100.00
20077;BME280;12348;42.710;23.378;2023-03-01T04:06:29;95620.84;;;4.79;100.00
20077;BME280;12348;42.710;23.378;2023-03-01T04:08:57;95610.00;;;4.86;100.00
20077;BME280;12348;42.710;23.378;2023-03-01T04:11:26;95622.22;;;4.82;100.00
20077;BME280;12348;42.710;23.378;2023-03-01T04:13:54;95619.88;;;4.85;100.00
20077;BME280;12348;42.710;23.378;2023-03-01T04:16:21;95613.97;;;4.83;100.00
20077;BME280;12348;42.710;23.378;2023-03-01T04:18:48;95629.06;;;4.78;100.00
20077;BME280;12348;42.710;23.378;2023-03-01T04:21:15;95614.59;;;4.74;100.00
20077;BME280;12348;42.710;23.378;2023-03-01T04:23:42;95619.84;;;4.69;100.00
20077;BME280;12348;42.710;23.378;2023-03-01T04:26:10;95615.31;;;4.69;100.00
20077;BME280;12348;42.710;23.378;2023-03-01T04:28:38;95616.50;;;4.61;100.00
20077;BME280;12348;42.710;23.378;2023-03-01T04:31:09;95613.94;;;4.67;100.00
20077;BME280;12348;42.710;23.378;2023-03-01T04:33:39;95612.97;;;4.73;100.00
20077;BME280;12348;42.710;23.378;2023-03-01T04:36:08;95611.38;;;4.72;100.00
20077;BME280;12348;42.710;23.378;2023-03-01T04:38:35;95613.69;;;4.68;100.00
20077;BME280;12348;42.710;23.378;2023-03-01T04:41:04;95623.31;;;4.69;100.00
20077;BME280;12348;42.710;23.378;2023-03-01T04:43:34;95624.03;;;4.65;100.00
20077;BME280;12348;42.710;23.378;2023-03-01T04:46:01;95602.78;;;4.70;100.00
20077;BME280;12348;42.710;23.378;2023-03-01T04:48:30;95608.59;;;4.67;100.00
20077;BME280;12348;42.710;23.378;2023-03-01T04:50:58;95597.38;;;4.65;100.00
20077;BME280;12348;42.710;23.378;2023-03-01T04:53:26;95606.97;;;4.66;100.00
20077;BME280;12348;42.710;23.378;2023-03-01T04:55:54;95604.56;;;4.64;100.00
20077;BME280;12348;42.710;23.378;2023-03-01T04:58:20;95611.75;;;4.64;100.00
20077;BME280;12348;42.710;23.378;2023-03-01T05:00:49;95609.44;;;4.67;100.00
20077;BME280;12348;42.710;23.378;2023-03-01T05:03:15;95604.09;;;4.67;100.00
20077;BME280;12348;42.710;23.378;2023-03-01T05:05:45;95603.25;;;4.67;100.00
20077;BME280;12348;42.710;23.378;2023-03-01T05:08:13;95600.91;;;4.70;100.00
20077;BME280;12348;42.710;23.378;2023-03-01T05:10:44;95598.03;;;4.72;100.00
20077;BME280;12348;42.710;23.378;2023-03-01T05:13:11;95612.16;;;4.72;100.00
20077;BME280;12348;42.710;23.378;2023-03-01T05:15:40;95618.31;;;4.73;100.00
20077;BME280;12348;42.710;23.378;2023-03-01T05:18:08;95619.13;;;4.73;100.00
20077;BME280;12348;42.710;23.378;2023-03-01T05:20:37;95617.25;;;4.74;100.00
20077;BME280;12348;42.710;23.378;2023-03-01T05:23:04;95611.38;;;4.72;100.00
20077;BME280;12348;42.710;23.378;2023-03-01T05:25:33;95613.13;;;4.66;100.00
20077;BME280;12348;42.710;23.378;2023-03-01T05:28:00;95622.66;;;4.62;100.00
20077;BME280;12348;42.710;23.378;2023-03-01T05:30:30;95612.56;;;4.64;100.00
20077;BME280;12348;42.710;23.378;2023-03-01T05:32:58;95620.91;;;4.68;100.00
20077;BME280;12348;42.710;23.378;2023-03-01T05:35:26;95610.72;;;4.65;100.00
20077;BME280;12348;42.710;23.378;2023-03-01T05:37:58;95611.19;;;4.61;100.00
20077;BME280;12348;42.710;23.378;2023-03-01T05:40:24;95618.72;;;4.65;100.00
20077;BME280;12348;42.710;23.378;2023-03-01T05:42:54;95610.38;;;4.61;100.00
20077;BME280;12348;42.710;23.378;2023-03-01T05:45:23;95618.38;;;4.61;100.00
20077;BME280;12348;42.710;23.378;2023-03-01T05:47:50;95619.78;;;4.52;100.00
20077;BME280;12348;42.710;23.378;2023-03-01T05:50:18;95627.00;;;4.51;100.00
20077;BME280;12348;42.710;23.378;2023-03-01T05:52:48;95627.31;;;4.55;100.00
20077;BME280;12348;42.710;23.378;2023-03-01T05:55:17;95635.78;;;4.52;100.00
20077;BME280;12348;42.710;23.378;2023-03-01T05:57:45;95632.19;;;4.58;100.00
20077;BME280;12348;42.710;23.378;2023-03-01T06:00:13;95626.63;;;4.59;100.00
20077;BME280;12348;42.710;23.378;2023-03-01T06:02:40;95638.97;;;4.66;100.00
20077;BME280;12348;42.710;23.378;2023-03-01T06:05:09;95634.97;;;4.63;100.00
20077;BME280;12348;42.710;23.378;2023-03-01T06:07:36;95640.75;;;4.60;100.00
20077;BME280;12348;42.710;23.378;2023-03-01T06:10:06;95652.63;;;4.52;100.00
20077;BME280;12348;42.710;23.378;2023-03-01T06:12:35;95655.03;;;4.54;100.00
20077;BME280;12348;42.710;23.378;2023-03-01T06:15:03;95650.03;;;4.57;100.00
20077;BME280;12348;42.710;23.378;2023-03-01T06:17:32;95655.81;;;4.37;100.00
20077;BME280;12348;42.710;23.378;2023-03-01T06:20:03;95654.16;;;4.48;100.00
20077;BME280;12348;42.710;23.378;2023-03-01T06:22:32;95673.97;;;4.52;100.00
20077;BME280;12348;42.710;23.378;2023-03-01T06:24:59;95663.28;;;4.52;100.00
20077;BME280;12348;42.710;23.378;2023-03-01T06:27:27;95660.00;;;4.62;100.00
20077;BME280;12348;42.710;23.378;2023-03-01T06:29:54;95653.25;;;4.71;100.00
20077;BME280;12348;42.710;23.378;2023-03-01T06:32:21;95654.38;;;4.75;100.00
20077;BME280;12348;42.710;23.378;2023-03-01T06:34:48;95655.44;;;4.74;100.00
20077;BME280;12348;42.710;23.378;2023-03-01T06:37:15;95634.97;;;4.80;100.00
20077;BME280;12348;42.710;23.378;2023-03-01T06:39:42;95646.31;;;4.87;100.00
20077;BME280;12348;42.710;23.378;2023-03-01T06:42:09;95646.31;;;4.87;100.00
20077;BME280;12348;42.710;23.378;2023-03-01T06:44:37;95655.13;;;4.88;100.00
20077;BME280;12348;42.710;23.378;2023-03-01T06:47:05;95650.84;;;4.86;100.00
20077;BME280;12348;42.710;23.378;2023-03-01T06:49:31;95656.03;;;4.93;100.00
20077;BME280;12348;42.710;23.378;2023-03-01T06:51:58;95651.13;;;4.73;100.00
20077;BME280;12348;42.710;23.378;2023-03-01T06:54:25;95651.13;;;4.73;100.00
20077;BME280;12348;42.710;23.378;2023-03-01T06:56:52;95646.84;;;4.89;100.00
20077;BME280;12348;42.710;23.378;2023-03-01T06:59:19;95669.72;;;4.85;100.00
20077;BME280;12348;42.710;23.378;2023-03-01T07:01:47;95660.53;;;4.93;100.00
20077;BME280;12348;42.710;23.378;2023-03-01T07:04:14;95650.94;;;5.08;100.00
20077;BME280;12348;42.710;23.378;2023-03-01T07:06:41;95656.56;;;4.95;100.00
20077;BME280;12348;42.710;23.378;2023-03-01T07:09:08;95655.03;;;4.99;100.00
20077;BME280;12348;42.710;23.378;2023-03-01T07:11:35;95653.09;;;5.11;100.00
20077;BME280;12348;42.710;23.378;2023-03-01T07:14:02;95654.81;;;5.18;100.00
20077;BME280;12348;42.710;23.378;2023-03-01T07:16:28;95651.16;;;5.07;100.00
20077;BME280;12348;42.710;23.378;2023-03-01T07:18:57;95653.09;;;5.11;100.00
20077;BME280;12348;42.710;23.378;2023-03-01T07:21:24;95649.97;;;4.98;100.00
20077;BME280;12348;42.710;23.378;2023-03-01T07:23:51;95645.97;;;5.00;100.00
20077;BME280;12348;42.710;23.378;2023-03-01T07:26:17;95650.09;;;4.74;100.00
20077;BME280;12348;42.710;23.378;2023-03-01T07:28:44;95650.69;;;4.93;100.00
20077;BME280;12348;42.710;23.378;2023-03-01T07:31:11;95647.69;;;4.90;100.00
20077;BME280;12348;42.710;23.378;2023-03-01T07:33:37;95652.81;;;5.08;100.00
20077;BME280;12348;42.710;23.378;2023-03-01T07:36:07;95632.56;;;5.29;100.00
20077;BME280;12348;42.710;23.378;2023-03-01T07:38:35;95649.81;;;5.38;100.00
20077;BME280;12348;42.710;23.378;2023-03-01T07:41:03;95642.75;;;5.49;100.00
20077;BME280;12348;42.710;23.378;2023-03-01T07:43:31;95640.00;;;5.61;100.00
20077;BME280;12348;42.710;23.378;2023-03-01T07:45:58;95642.41;;;5.62;100.00
20077;BME280;12348;42.710;23.378;2023-03-01T07:48:25;95645.56;;;5.76;100.00
20077;BME280;12348;42.710;23.378;2023-03-01T07:50:52;95650.53;;;5.89;100.00
20077;BME280;12348;42.710;23.378;2023-03-01T07:53:20;95639.63;;;5.74;100.00
20077;BME280;12348;42.710;23.378;2023-03-01T07:55:47;95632.00;;;5.82;100.00
20077;BME280;12348;42.710;23.378;2023-03-01T07:58:14;95635.56;;;5.88;100.00
20077;BME280;12348;42.710;23.378;2023-03-01T08:00:40;95641.56;;;5.78;100.00
20077;BME280;12348;42.710;23.378;2023-03-01T08:03:07;95622.94;;;5.83;100.00
20077;BME280;12348;42.710;23.378;2023-03-01T08:05:34;95623.50;;;5.86;100.00
20077;BME280;12348;42.710;23.378;2023-03-01T08:08:01;95639.03;;;5.89;100.00
20077;BME280;12348;42.710;23.378;2023-03-01T08:10:29;95626.03;;;5.92;100.00
20077;BME280;12348;42.710;23.378;2023-03-01T08:12:56;95617.03;;;5.98;100.00
20077;BME280;12348;42.710;23.378;2023-03-01T08:15:23;95620.41;;;6.16;100.00
20077;BME280;12348;42.710;23.378;2023-03-01T08:17:50;95619.50;;;6.05;100.00
20077;BME280;12348;42.710;23.378;2023-03-01T08:20:17;95619.38;;;5.95;100.00
20077;BME280;12348;42.710;23.378;2023-03-01T08:22:44;95622.69;;;6.24;100.00
20077;BME280;12348;42.710;23.378;2023-03-01T08:25:11;95613.16;;;6.33;100.00
20077;BME280;12348;42.710;23.378;2023-03-01T08:27:39;95598.78;;;6.66;100.00
20077;BME280;12348;42.710;23.378;2023-03-01T08:30:07;95611.22;;;6.83;100.00
20077;BME280;12348;42.710;23.378;2023-03-01T08:32:38;95624.63;;;7.10;100.00
20077;BME280;12348;42.710;23.378;2023-03-01T08:35:05;95617.47;;;6.88;100.00
20077;BME280;12348;42.710;23.378;2023-03-01T08:37:32;95623.88;;;6.38;100.00
20077;BME280;12348;42.710;23.378;2023-03-01T08:39:59;95614.56;;;6.68;100.00
20077;BME280;12348;42.710;23.378;2023-03-01T08:42:26;95614.00;;;6.93;100.00
20077;BME280;12348;42.710;23.378;2023-03-01T08:44:54;95622.91;;;6.98;100.00
20077;BME280;12348;42.710;23.378;2023-03-01T08:47:22;95617.22;;;7.22;100.00
20077;BME280;12348;42.710;23.378;2023-03-01T08:49:49;95621.88;;;7.04;100.00
20077;BME280;12348;42.710;23.378;2023-03-01T08:52:16;95613.47;;;7.28;100.00
20077;BME280;12348;42.710;23.378;2023-03-01T08:54:43;95620.25;;;7.36;100.00
20077;BME280;12348;42.710;23.378;2023-03-01T08:57:10;95622.41;;;7.39;100.00
20077;BME280;12348;42.710;23.378;2023-03-01T08:59:38;95618.28;;;7.58;100.00
20077;BME280;12348;42.710;23.378;2023-03-01T09:02:11;95606.84;;;7.78;100.00
20077;BME280;12348;42.710;23.378;2023-03-01T09:04:38;95636.69;;;7.49;100.00
20077;BME280;12348;42.710;23.378;2023-03-01T09:07:05;95632.72;;;7.20;100.00
20077;BME280;12348;42.710;23.378;2023-03-01T09:09:32;95614.63;;;7.37;100.00
20077;BME280;12348;42.710;23.378;2023-03-01T09:11:59;95614.00;;;7.62;100.00
20077;BME280;12348;42.710;23.378;2023-03-01T09:14:26;95610.13;;;7.85;100.00
20077;BME280;12348;42.710;23.378;2023-03-01T09:16:53;95631.94;;;7.62;100.00
20077;BME280;12348;42.710;23.378;2023-03-01T09:19:22;95610.38;;;7.41;100.00
20077;BME280;12348;42.710;23.378;2023-03-01T09:21:48;95613.16;;;7.57;100.00
20077;BME280;12348;42.710;23.378;2023-03-01T09:24:20;95629.09;;;7.36;100.00
20077;BME280;12348;42.710;23.378;2023-03-01T09:26:47;95621.09;;;7.41;100.00
20077;BME280;12348;42.710;23.378;2023-03-01T09:32:24;95616.31;;;7.11;100.00
20077;BME280;12348;42.710;23.378;2023-03-01T09:34:52;95604.88;;;7.21;100.00
20077;BME280;12348;42.710;23.378;2023-03-01T09:37:30;95619.13;;;7.32;100.00
20077;BME280;12348;42.710;23.378;2023-03-01T09:39:58;95606.56;;;7.32;100.00
20077;BME280;12348;42.710;23.378;2023-03-01T09:42:25;95610.56;;;7.29;100.00
20077;BME280;12348;42.710;23.378;2023-03-01T09:44:57;95609.19;;;7.27;100.00
20077;BME280;12348;42.710;23.378;2023-03-01T09:47:27;95599.75;;;7.51;100.00
20077;BME280;12348;42.710;23.378;2023-03-01T09:50:02;95608.25;;;7.43;100.00
20077;BME280;12348;42.710;23.378;2023-03-01T09:52:36;95598.69;;;7.58;100.00
20077;BME280;12348;42.710;23.378;2023-03-01T09:55:09;95585.19;;;7.42;100.00
20077;BME280;12348;42.710;23.378;2023-03-01T09:57:43;95602.63;;;7.45;100.00
20077;BME280;12348;42.710;23.378;2023-03-01T10:00:29;95610.09;;;7.38;100.00
20077;BME280;12348;42.710;23.378;2023-03-01T10:03:03;95593.16;;;7.74;100.00
20077;BME280;12348;42.710;23.378;2023-03-01T10:05:56;95605.38;;;7.55;100.00
20077;BME280;12348;42.710;23.378;2023-03-01T10:08:29;95585.34;;;7.68;100.00
20077;BME280;12348;42.710;23.378;2023-03-01T10:10:59;95575.13;;;7.60;100.00
20077;BME280;12348;42.710;23.378;2023-03-01T10:13:31;95566.56;;;7.63;100.00
20077;BME280;12348;42.710;23.378;2023-03-01T10:16:05;95577.72;;;7.44;100.00
20077;BME280;12348;42.710;23.378;2023-03-01T10:18:37;95575.41;;;7.58;100.00
20077;BME280;12348;42.710;23.378;2023-03-01T10:21:14;95601.06;;;7.54;100.00
20077;BME280;12348;42.710;23.378;2023-03-01T10:23:42;95586.72;;;7.70;100.00
20077;BME280;12348;42.710;23.378;2023-03-01T10:26:28;95591.28;;;7.75;100.00
20077;BME280;12348;42.710;23.378;2023-03-01T10:29:02;95557.97;;;8.23;100.00
20077;BME280;12348;42.710;23.378;2023-03-01T10:31:38;95561.63;;;7.92;100.00
20077;BME280;12348;42.710;23.378;2023-03-01T10:34:15;95552.34;;;8.25;100.00
20077;BME280;12348;42.710;23.378;2023-03-01T10:36:47;95551.59;;;8.40;100.00
20077;BME280;12348;42.710;23.378;2023-03-01T10:39:17;95560.91;;;8.12;100.00
20077;BME280;12348;42.710;23.378;2023-03-01T10:41:57;95563.03;;;8.10;100.00
20077;BME280;12348;42.710;23.378;2023-03-01T10:44:38;95537.06;;;7.58;100.00
20077;BME280;12348;42.710;23.378;2023-03-01T10:47:14;95540.16;;;7.39;100.00
20077;BME280;12348;42.710;23.378;2023-03-01T10:49:52;95519.34;;;7.51;100.00
20077;BME280;12348;42.710;23.378;2023-03-01T10:52:22;95514.66;;;6.84;100.00
20077;BME280;12348;42.710;23.378;2023-03-01T10:54:55;95550.91;;;7.02;100.00
20077;BME280;12348;42.710;23.378;2023-03-01T10:57:31;95542.72;;;7.19;100.00
20077;BME280;12348;42.710;23.378;2023-03-01T11:00:19;95524.19;;;6.75;100.00
20077;BME280;12348;42.710;23.378;2023-03-01T11:02:51;95530.72;;;6.84;100.00
20077;BME280;12348;42.710;23.378;2023-03-01T11:05:27;95545.81;;;6.68;100.00
20077;BME280;12348;42.710;23.378;2023-03-01T11:07:58;95537.06;;;6.78;100.00
20077;BME280;12348;42.710;23.378;2023-03-01T11:10:27;95543.28;;;6.84;100.00
20077;BME280;12348;42.710;23.378;2023-03-01T11:13:05;95532.31;;;6.85;100.00
20077;BME280;12348;42.710;23.378;2023-03-01T11:15:33;95543.41;;;6.99;100.00
20077;BME280;12348;42.710;23.378;2023-03-01T11:18:00;95557.63;;;7.04;100.00
20077;BME280;12348;42.710;23.378;2023-03-01T11:20:30;95538.97;;;7.20;100.00
20077;BME280;12348;42.710;23.378;2023-03-01T11:23:03;95544.84;;;7.17;100.00
20077;BME280;12348;42.710;23.378;2023-03-01T11:25:34;95548.47;;;7.00;100.00
20077;BME280;12348;42.710;23.378;2023-03-01T11:28:05;95554.09;;;6.99;100.00
20077;BME280;12348;42.710;23.378;2023-03-01T11:30:35;95535.31;;;6.94;100.00
20077;BME280;12348;42.710;23.378;2023-03-01T11:33:13;95548.41;;;6.90;100.00
20077;BME280;12348;42.710;23.378;2023-03-01T11:35:49;95538.34;;;7.02;100.00
20077;BME280;12348;42.710;23.378;2023-03-01T11:38:23;95550.34;;;7.00;100.00
20077;BME280;12348;42.710;23.378;2023-03-01T11:40:53;95525.16;;;7.33;100.00
20077;BME280;12348;42.710;23.378;2023-03-01T11:43:28;95527.53;;;7.29;100.00
20077;BME280;12348;42.710;23.378;2023-03-01T11:46:11;95522.06;;;7.57;100.00
20077;BME280;12348;42.710;23.378;2023-03-01T11:48:55;95517.16;;;8.06;100.00
20077;BME280;12348;42.710;23.378;2023-03-01T11:51:38;95511.00;;;8.11;100.00
20077;BME280;12348;42.710;23.378;2023-03-01T11:54:15;95503.72;;;7.96;100.00
20077;BME280;12348;42.710;23.378;2023-03-01T11:56:47;95500.22;;;7.90;100.00
20077;BME280;12348;42.710;23.378;2023-03-01T12:03:14;95504.97;;;7.73;100.00
20077;BME280;12348;42.710;23.378;2023-03-01T12:06:08;95500.22;;;7.85;100.00
20077;BME280;12348;42.710;23.378;2023-03-01T12:08:41;95518.28;;;7.58;100.00
20077;BME280;12348;42.710;23.378;2023-03-01T12:11:23;95499.41;;;7.90;100.00
20077;BME280;12348;42.710;23.378;2023-03-01T12:17:15;95497.97;;;8.45;100.00
20077;BME280;12348;42.710;23.378;2023-03-01T12:19:58;95479.19;;;8.70;100.00
20077;BME280;12348;42.710;23.378;2023-03-01T12:22:30;95484.00;;;8.43;100.00
20077;BME280;12348;42.710;23.378;2023-03-01T12:25:16;95489.09;;;8.49;100.00
20077;BME280;12348;42.710;23.378;2023-03-01T12:28:07;95485.25;;;8.10;100.00
20077;BME280;12348;42.710;23.378;2023-03-01T12:30:51;95478.56;;;8.07;100.00
20077;BME280;12348;42.710;23.378;2023-03-01T12:33:28;95488.50;;;8.22;100.00
20077;BME280;12348;42.710;23.378;2023-03-01T12:39:02;95470.53;;;8.33;100.00
20077;BME280;12348;42.710;23.378;2023-03-01T12:41:53;95470.06;;;8.41;100.00
20077;BME280;12348;42.710;23.378;2023-03-01T12:44:50;95469.78;;;8.68;100.00
20077;BME280;12348;42.710;23.378;2023-03-01T12:47:32;95459.03;;;8.58;100.00
20077;BME280;12348;42.710;23.378;2023-03-01T12:50:11;95459.03;;;8.42;100.00
20077;BME280;12348;42.710;23.378;2023-03-01T12:52:43;95477.75;;;8.12;100.00
20077;BME280;12348;42.710;23.378;2023-03-01T12:55:22;95471.84;;;8.10;100.00
20077;BME280;12348;42.710;23.378;2023-03-01T12:58:00;95469.47;;;8.34;100.00
20077;BME280;12348;42.710;23.378;2023-03-01T13:00:32;95460.94;;;8.57;100.00
20077;BME280;12348;42.710;23.378;2023-03-01T13:03:12;95470.56;;;8.43;100.00
20077;BME280;12348;42.710;23.378;2023-03-01T13:06:03;95467.09;;;8.53;100.00
20077;BME280;12348;42.710;23.378;2023-03-01T13:08:38;95465.78;;;8.55;100.00
20077;BME280;12348;42.710;23.378;2023-03-01T13:11:15;95462.25;;;8.90;100.00
20077;BME280;12348;42.710;23.378;2023-03-01T13:13:42;95476.22;;;8.46;100.00
20077;BME280;12348;42.710;23.378;2023-03-01T13:16:40;95469.19;;;8.15;100.00
20077;BME280;12348;42.710;23.378;2023-03-01T13:19:13;95468.66;;;8.18;100.00